LiveATC.Net - Listen to live air traffic control over the Internet!

ICAO: MMQT  IATA: QRO   Airport: Queretaro Intercontinental Airport
City: Queretaro
Country: Mexico   Continent: North America
MMQT METAR Weather: MMQT 202143Z 10010G20KT 8SM SCT025 28/05 A3009 RMK 8/100
MMQT Flight Activity (FlightAware)
MMQT Tower
Feed Status: UP   Listeners: 1
Listen right in your browser - requires Flash (in browser, requires Flash)
Click here to listen with your own player (launches your MP3 player)
MMQT Tower Audio Archives
Queretaro Tower118.950


Unauthorized use prohibited. See Terms of Service

Find LiveATC Audio Streams

Airport/ARTCC Code

Frequency Search
(e.g., 124.400, 128.75)
Site-wide search

Browse LiveATC Feeds
LiveATC Coverage Map
Top 50 LiveATC Feeds
Bad Weather Areas

Offer a LiveATC Feed
Press Inquiries

LiveATC on iPhone
LiveATC on Android

Windows Phone
Windows 8/10

LiveATC Mobile
(Mobile browser)

ATC Audio Archives
Interesting Recordings

LiveATC Forums

Home Page
Make a Donation
Terms of Use
Privacy Policy

Canadian Air Freqs


FAA Airport Status
Nat'l Airspace Status
Arrival Demand Charts

Server Software By: